Time;durP1;ratioP1;P1;durP2;ratioP2;P2;SDS_P1;SDS_P2;PMS_P1;PMS_P2;Temp;Humidity;BMP_temperature;BMP_pressure;BME280_temperature;BME280_humidity;BME280_pressure;Samples;Min_cycle;Max_cycle;Signal;HPM_P1;HPM_P2
2022/10/15 00:00:51;;;;;;;1.10;0.40;;;14.00;99.90;;;;;;4180028;28;20307;-73
2022/10/15 00:02:52;;;;;;;0.60;0.60;;;14.00;99.90;;;;;;4180363;28;20643;-73
2022/10/15 00:04:52;;;;;;;0.30;0.30;;;14.00;99.90;;;;;;4179169;28;20783;-73
2022/10/15 00:06:53;;;;;;;1.90;0.40;;;13.90;99.90;;;;;;4179175;28;20179;-73
2022/10/15 00:08:54;;;;;;;0.73;0.40;;;13.90;99.90;;;;;;4180378;28;20187;-73
2022/10/15 00:10:54;;;;;;;0.50;0.50;;;14.00;99.90;;;;;;4179658;28;20191;-73
2022/10/15 00:12:55;;;;;;;0.40;0.40;;;13.90;99.90;;;;;;4180045;28;20220;-74
2022/10/15 00:14:56;;;;;;;0.40;0.40;;;14.00;99.90;;;;;;4180298;28;20208;-73
2022/10/15 00:16:56;;;;;;;1.27;0.53;;;13.90;99.90;;;;;;4180410;28;20177;-74
2022/10/15 00:18:58;;;;;;;1.87;0.40;;;14.00;99.90;;;;;;4180066;28;20185;-73
2022/10/15 00:20:59;;;;;;;1.17;0.60;;;14.00;99.90;;;;;;4179573;28;20175;-74
2022/10/15 00:23:00;;;;;;;1.10;1.10;;;13.90;99.90;;;;;;4180349;28;20223;-73
2022/10/15 00:25:01;;;;;;;1.60;1.50;;;14.00;99.90;;;;;;4180060;28;20687;-74
2022/10/15 00:27:02;;;;;;;0.30;0.30;;;14.00;99.90;;;;;;4180049;28;20184;-73
2022/10/15 00:29:03;;;;;;;0.43;0.43;;;13.90;99.90;;;;;;4180092;28;20229;-75
2022/10/15 00:31:07;;;;;;;0.60;0.60;;;14.00;99.90;;;;;;4179226;28;20191;-74
2022/10/15 00:33:08;;;;;;;0.40;0.40;;;13.90;99.90;;;;;;4180247;28;20577;-74
2022/10/15 00:35:08;;;;;;;1.17;0.40;;;14.00;99.90;;;;;;4179827;28;20261;-73
2022/10/15 00:37:09;;;;;;;1.43;1.43;;;14.00;99.90;;;;;;4179305;28;20196;-74
2022/10/15 00:39:10;;;;;;;0.33;0.33;;;14.10;99.90;;;;;;4178884;28;20187;-74
2022/10/15 00:41:15;;;;;;;0.40;0.40;;;14.10;99.90;;;;;;4185097;28;20183;-75
2022/10/15 00:43:16;;;;;;;0.50;0.50;;;14.10;99.90;;;;;;4196407;28;20244;-75
2022/10/15 00:45:16;;;;;;;1.37;1.37;;;14.10;99.90;;;;;;4183702;28;20204;-74
2022/10/15 00:47:29;;;;;;;0.87;0.87;;;14.10;99.90;;;;;;4179581;28;20188;-75
2022/10/15 00:49:31;;;;;;;0.70;0.70;;;14.10;99.90;;;;;;4179725;28;20203;-75
2022/10/15 00:51:41;;;;;;;0.77;0.67;;;14.10;99.90;;;;;;4178984;28;20263;-75
2022/10/15 00:53:42;;;;;;;0.47;0.43;;;14.10;99.90;;;;;;4179574;28;20285;-75
2022/10/15 00:55:43;;;;;;;0.47;0.47;;;14.10;99.90;;;;;;4179429;28;20238;-75
2022/10/15 00:57:48;;;;;;;0.63;0.63;;;14.10;99.90;;;;;;4179503;28;20173;-74
2022/10/15 00:59:52;;;;;;;0.30;0.30;;;14.10;99.90;;;;;;4179651;28;20206;-75
2022/10/15 01:01:53;;;;;;;0.90;0.90;;;14.10;99.90;;;;;;4178822;28;20321;-75
2022/10/15 01:03:54;;;;;;;0.80;0.80;;;14.00;99.90;;;;;;4179393;28;20675;-75
2022/10/15 01:05:55;;;;;;;2.47;2.37;;;14.00;99.90;;;;;;4179580;28;20199;-73
2022/10/15 01:07:56;;;;;;;1.13;1.03;;;14.00;99.90;;;;;;4178037;28;20191;-74
2022/10/15 01:09:57;;;;;;;3.43;3.33;;;14.00;99.90;;;;;;4179382;28;20267;-74
2022/10/15 01:11:57;;;;;;;1.80;1.77;;;13.90;99.90;;;;;;4178649;28;20184;-74
2022/10/15 01:14:21;;;;;;;0.77;0.77;;;14.00;99.90;;;;;;4179107;28;20291;-74
2022/10/15 01:16:34;;;;;;;2.17;2.07;;;14.00;99.90;;;;;;4179465;28;20208;-75
2022/10/15 01:18:50;;;;;;;0.87;0.87;;;14.00;99.90;;;;;;4179539;28;20176;-74
2022/10/15 01:21:23;;;;;;;4.03;3.90;;;14.00;99.90;;;;;;4178842;28;20216;-75
2022/10/15 01:23:41;;;;;;;0.60;0.60;;;14.00;99.90;;;;;;4179519;28;20230;-74
2022/10/15 01:26:00;;;;;;;0.60;0.60;;;13.90;99.90;;;;;;4179146;28;20200;-74
2022/10/15 01:28:41;;;;;;;0.77;0.77;;;13.90;99.90;;;;;;4179068;28;20180;-75
2022/10/15 01:30:47;;;;;;;0.50;0.50;;;13.90;99.90;;;;;;4178419;28;20176;-75
2022/10/15 01:33:21;;;;;;;0.53;0.53;;;14.00;99.90;;;;;;4177516;28;20678;-74
2022/10/15 01:35:37;;;;;;;0.40;0.40;;;13.90;99.90;;;;;;4179229;28;20314;-74
2022/10/15 01:37:40;;;;;;;0.50;0.50;;;13.90;99.90;;;;;;4179230;28;20517;-74
2022/10/15 01:39:46;;;;;;;0.97;0.47;;;13.90;99.90;;;;;;4179162;28;20208;-74
2022/10/15 01:41:51;;;;;;;2.23;2.17;;;13.80;99.90;;;;;;4178519;28;20176;-74
2022/10/15 01:44:19;;;;;;;0.43;0.43;;;13.80;99.90;;;;;;4178974;28;20213;-74
2022/10/15 01:46:28;;;;;;;2.33;2.23;;;13.80;99.90;;;;;;4178488;28;20255;-74
2022/10/15 01:48:30;;;;;;;0.70;0.47;;;13.80;99.90;;;;;;4178885;28;20181;-74
2022/10/15 01:50:33;;;;;;;0.50;0.50;;;13.80;99.90;;;;;;4178425;28;20212;-74
2022/10/15 01:52:37;;;;;;;0.43;0.43;;;13.70;99.90;;;;;;4178754;28;20781;-74
2022/10/15 01:54:39;;;;;;;0.40;0.40;;;13.80;99.90;;;;;;4178749;28;20528;-74
2022/10/15 01:56:41;;;;;;;0.70;0.70;;;13.80;99.90;;;;;;4178665;28;20693;-75
2022/10/15 01:58:43;;;;;;;3.47;3.37;;;13.80;99.90;;;;;;4178871;28;20173;-74
2022/10/15 02:00:46;;;;;;;1.50;1.50;;;13.70;99.90;;;;;;4178285;28;20635;-73
2022/10/15 02:02:46;;;;;;;2.00;1.57;;;13.60;99.90;;;;;;4183699;28;20223;-74
2022/10/15 02:04:47;;;;;;;0.50;0.50;;;13.60;99.90;;;;;;4195136;28;20179;-74
2022/10/15 02:07:01;;;;;;;0.40;0.40;;;13.60;99.90;;;;;;4195330;28;20176;-74
2022/10/15 02:09:02;;;;;;;0.40;0.40;;;13.60;99.90;;;;;;4193984;28;20176;-75
2022/10/15 02:11:13;;;;;;;2.37;0.80;;;13.60;99.90;;;;;;4194951;28;20186;-74
2022/10/15 02:13:27;;;;;;;0.50;0.50;;;13.60;99.90;;;;;;4195051;28;20727;-74
2022/10/15 02:15:51;;;;;;;1.10;0.80;;;13.60;99.90;;;;;;4193939;28;20199;-74
2022/10/15 02:18:01;;;;;;;0.93;0.40;;;13.60;99.90;;;;;;4195231;28;20179;-73
2022/10/15 02:20:19;;;;;;;2.50;2.40;;;13.50;99.90;;;;;;4194371;28;20183;-74
2022/10/15 02:22:22;;;;;;;1.17;0.40;;;13.50;99.90;;;;;;4195299;28;20179;-74
2022/10/15 02:24:26;;;;;;;1.70;1.63;;;13.50;99.90;;;;;;4195157;28;20175;-73
2022/10/15 02:26:29;;;;;;;2.17;2.07;;;13.50;99.90;;;;;;4195369;28;20200;-74
2022/10/15 02:28:32;;;;;;;1.23;1.23;;;13.50;99.90;;;;;;4195138;28;20234;-74
2022/10/15 02:30:36;;;;;;;2.27;2.20;;;13.30;99.90;;;;;;4194489;28;20660;-72
2022/10/15 02:32:38;;;;;;;2.07;1.47;;;13.40;99.90;;;;;;4194962;28;20682;-74
2022/10/15 02:34:40;;;;;;;0.43;0.43;;;13.40;99.90;;;;;;4194698;28;20812;-73
2022/10/15 02:36:41;;;;;;;1.07;0.40;;;13.40;99.90;;;;;;4193657;28;20260;-74
2022/10/15 02:38:43;;;;;;;0.70;0.70;;;13.40;99.90;;;;;;4191843;28;20175;-74
2022/10/15 02:40:45;;;;;;;0.47;0.47;;;13.40;99.90;;;;;;4177972;28;20558;-74
2022/10/15 02:42:46;;;;;;;1.00;1.00;;;13.40;99.90;;;;;;4177417;28;20689;-74
2022/10/15 02:44:46;;;;;;;0.57;0.57;;;13.40;99.90;;;;;;4178392;28;20180;-73
2022/10/15 02:46:47;;;;;;;2.20;0.80;;;13.40;99.90;;;;;;4193594;28;20183;-73
2022/10/15 02:48:47;;;;;;;0.50;0.50;;;13.40;99.90;;;;;;4178505;28;20219;-74
2022/10/15 02:50:48;;;;;;;0.83;0.50;;;13.40;99.90;;;;;;4177762;28;20188;-74
2022/10/15 02:52:48;;;;;;;1.17;0.50;;;13.40;99.90;;;;;;4178188;28;20291;-74
2022/10/15 02:54:49;;;;;;;0.43;0.43;;;13.50;99.90;;;;;;4178245;28;20207;-74
2022/10/15 02:56:49;;;;;;;0.40;0.40;;;13.50;99.90;;;;;;4193670;28;20579;-73
2022/10/15 02:58:50;;;;;;;0.70;0.70;;;13.50;99.90;;;;;;4176059;28;20834;-74
2022/10/15 03:00:51;;;;;;;1.40;0.93;;;13.50;99.90;;;;;;4189275;28;20221;-74
2022/10/15 03:02:51;;;;;;;0.53;0.30;;;13.50;99.90;;;;;;4197914;28;20191;-74
2022/10/15 03:04:52;;;;;;;1.60;1.60;;;13.50;99.90;;;;;;4196365;28;20219;-74
2022/10/15 03:06:53;;;;;;;0.87;0.40;;;13.60;99.90;;;;;;4197791;28;20714;-74
2022/10/15 03:08:53;;;;;;;0.70;0.70;;;13.60;99.90;;;;;;4197579;28;20554;-74
2022/10/15 03:10:54;;;;;;;0.90;0.90;;;13.60;99.90;;;;;;4197176;28;20183;-74
2022/10/15 03:12:55;;;;;;;0.70;0.70;;;13.50;99.90;;;;;;4197640;28;20207;-74
2022/10/15 03:14:55;;;;;;;0.40;0.40;;;13.60;99.90;;;;;;4197782;28;20204;-74
2022/10/15 03:16:56;;;;;;;0.50;0.50;;;13.60;99.90;;;;;;4196610;28;20207;-74
2022/10/15 03:18:56;;;;;;;0.40;0.40;;;13.60;99.90;;;;;;4197369;28;20238;-74
2022/10/15 03:20:57;;;;;;;0.30;0.30;;;13.60;99.90;;;;;;4196985;28;20530;-74
2022/10/15 03:22:58;;;;;;;0.50;0.50;;;13.60;99.90;;;;;;4197665;28;20625;-74
2022/10/15 03:24:58;;;;;;;0.50;0.50;;;13.60;99.90;;;;;;4197659;28;20204;-74
2022/10/15 03:26:59;;;;;;;0.30;0.30;;;13.60;99.90;;;;;;4197699;28;20192;-74
2022/10/15 03:28:59;;;;;;;0.60;0.50;;;13.60;99.90;;;;;;4197365;28;20546;-74
2022/10/15 03:31:00;;;;;;;0.47;0.47;;;13.60;99.90;;;;;;4197320;28;20801;-74
2022/10/15 03:33:01;;;;;;;0.60;0.60;;;13.70;99.90;;;;;;4197385;28;20325;-74
2022/10/15 03:35:02;;;;;;;0.33;0.33;;;13.60;99.90;;;;;;4197372;28;20199;-74
2022/10/15 03:37:02;;;;;;;0.40;0.40;;;13.60;99.90;;;;;;4197598;28;20179;-73
2022/10/15 03:39:03;;;;;;;1.10;1.00;;;13.60;99.90;;;;;;4197371;28;20276;-74
2022/10/15 03:41:03;;;;;;;1.43;1.23;;;13.60;99.90;;;;;;4196868;28;20549;-73
2022/10/15 03:43:04;;;;;;;0.60;0.60;;;13.60;99.90;;;;;;4197410;28;20175;-73
2022/10/15 03:45:05;;;;;;;0.40;0.40;;;13.60;99.90;;;;;;4197425;28;20758;-74
2022/10/15 03:47:06;;;;;;;0.40;0.40;;;13.60;99.90;;;;;;4197447;28;20172;-74
2022/10/15 03:49:07;;;;;;;0.80;0.80;;;13.60;99.90;;;;;;4197463;28;20257;-73
2022/10/15 03:51:07;;;;;;;0.40;0.40;;;13.60;99.90;;;;;;4196808;28;20686;-74
2022/10/15 03:53:08;;;;;;;0.60;0.60;;;13.60;99.90;;;;;;4197237;28;20211;-74
2022/10/15 03:55:09;;;;;;;0.40;0.40;;;13.60;99.90;;;;;;4197494;28;20195;-73
2022/10/15 03:57:10;;;;;;;0.50;0.50;;;13.60;99.90;;;;;;4197447;28;20183;-74
2022/10/15 03:59:10;;;;;;;0.43;0.43;;;13.70;99.90;;;;;;4197330;28;20184;-73
2022/10/15 04:01:13;;;;;;;0.40;0.40;;;13.60;99.90;;;;;;4196250;28;20207;-74
2022/10/15 04:03:14;;;;;;;0.40;0.40;;;13.60;99.90;;;;;;4197093;28;20557;-74
2022/10/15 04:05:15;;;;;;;0.40;0.40;;;13.70;99.90;;;;;;4195778;28;20295;-74
2022/10/15 04:07:15;;;;;;;0.50;0.50;;;13.70;99.90;;;;;;4196879;28;20183;-74
2022/10/15 04:09:16;;;;;;;0.40;0.40;;;13.70;99.90;;;;;;4197121;28;20183;-74
2022/10/15 04:11:16;;;;;;;0.40;0.40;;;13.60;99.90;;;;;;4196049;28;20559;-74
2022/10/15 04:13:17;;;;;;;0.40;0.40;;;13.70;99.90;;;;;;4197082;28;20234;-74
2022/10/15 04:15:17;;;;;;;0.40;0.40;;;13.70;99.90;;;;;;4196742;28;20203;-74
2022/10/15 04:17:18;;;;;;;0.30;0.30;;;13.60;99.90;;;;;;4196769;28;20175;-74
2022/10/15 04:19:18;;;;;;;0.40;0.40;;;13.40;99.90;;;;;;4196811;28;20187;-72
2022/10/15 04:21:20;;;;;;;0.53;0.53;;;13.50;99.90;;;;;;4196215;28;20721;-74
2022/10/15 04:23:20;;;;;;;0.97;0.50;;;13.40;99.90;;;;;;4196768;28;20175;-73
2022/10/15 04:25:21;;;;;;;0.60;0.50;;;13.50;99.90;;;;;;4196680;28;20202;-74
2022/10/15 04:27:22;;;;;;;0.37;0.37;;;13.50;99.90;;;;;;4196783;28;20665;-74
2022/10/15 04:29:22;;;;;;;0.37;0.37;;;13.50;99.90;;;;;;4195306;28;20682;-74
2022/10/15 04:31:23;;;;;;;0.50;0.50;;;13.40;99.90;;;;;;4195832;28;20183;-74
2022/10/15 04:33:24;;;;;;;0.60;0.40;;;13.50;99.90;;;;;;4196221;28;20669;-74
2022/10/15 04:35:24;;;;;;;0.50;0.50;;;13.50;99.90;;;;;;4196557;28;20608;-74
2022/10/15 04:37:25;;;;;;;1.10;1.00;;;13.40;99.90;;;;;;4196645;28;20212;-73
2022/10/15 04:39:25;;;;;;;0.80;0.80;;;13.50;99.90;;;;;;4196297;28;20184;-74
2022/10/15 04:41:26;;;;;;;0.83;0.70;;;13.50;99.90;;;;;;4191216;28;20175;-74
2022/10/15 04:43:27;;;;;;;0.80;0.80;;;13.60;99.90;;;;;;4196300;28;20220;-74
2022/10/15 04:45:28;;;;;;;0.70;0.70;;;13.60;99.90;;;;;;4196340;28;20233;-74
2022/10/15 04:47:29;;;;;;;2.30;1.00;;;13.50;99.90;;;;;;4195084;28;20187;-75
2022/10/15 04:49:29;;;;;;;2.80;1.47;;;13.60;99.90;;;;;;4196236;28;20203;-75
2022/10/15 04:51:30;;;;;;;1.60;1.20;;;13.60;99.90;;;;;;4195756;28;20195;-74
2022/10/15 04:53:31;;;;;;;0.93;0.83;;;13.60;99.90;;;;;;4196068;28;20685;-75
2022/10/15 04:55:32;;;;;;;1.10;0.80;;;13.50;99.90;;;;;;4196276;28;20670;-73
2022/10/15 04:57:32;;;;;;;0.70;0.70;;;13.50;99.90;;;;;;4196437;28;20210;-74
2022/10/15 04:59:33;;;;;;;0.90;0.70;;;13.60;99.90;;;;;;4196248;28;20247;-74
2022/10/15 05:01:33;;;;;;;0.70;0.70;;;13.60;99.90;;;;;;4195576;28;20179;-74
2022/10/15 05:03:34;;;;;;;1.20;0.80;;;13.60;99.90;;;;;;4196143;28;20924;-73
2022/10/15 05:05:35;;;;;;;0.53;0.53;;;13.60;99.90;;;;;;4195829;28;20253;-74
2022/10/15 05:07:36;;;;;;;1.30;0.60;;;13.60;99.90;;;;;;4195979;28;20195;-73
2022/10/15 05:09:36;;;;;;;1.73;0.70;;;13.60;99.90;;;;;;4195866;28;20184;-74
2022/10/15 05:11:37;;;;;;;0.50;0.50;;;13.60;99.90;;;;;;4195494;28;20180;-74
2022/10/15 05:13:38;;;;;;;0.80;0.77;;;13.60;99.90;;;;;;4195640;28;20211;-74
2022/10/15 05:15:38;;;;;;;0.80;0.80;;;13.60;99.90;;;;;;4184617;28;20224;-74
2022/10/15 05:17:39;;;;;;;0.80;0.80;;;13.70;99.90;;;;;;4191453;28;20236;-74
2022/10/15 05:19:39;;;;;;;0.90;0.80;;;13.70;99.90;;;;;;4195699;28;20207;-74
2022/10/15 05:21:40;;;;;;;1.10;1.00;;;13.70;99.90;;;;;;4194674;28;20176;-74
2022/10/15 05:23:41;;;;;;;2.60;1.10;;;13.70;99.90;;;;;;4194145;28;20197;-74
2022/10/15 05:25:41;;;;;;;1.63;0.63;;;13.70;99.90;;;;;;4211183;28;20218;-74
2022/10/15 05:27:42;;;;;;;1.07;0.70;;;13.70;99.90;;;;;;4195698;28;20191;-74
2022/10/15 05:29:42;;;;;;;0.50;0.50;;;13.70;99.90;;;;;;4195642;28;20666;-73
2022/10/15 05:31:43;;;;;;;0.60;0.60;;;13.60;99.90;;;;;;4193364;28;20646;-74
2022/10/15 05:33:44;;;;;;;0.60;0.60;;;13.60;99.90;;;;;;4195756;28;20210;-74
2022/10/15 05:35:45;;;;;;;2.40;0.60;;;13.70;99.90;;;;;;4195836;28;20241;-74
2022/10/15 05:37:45;;;;;;;0.50;0.50;;;13.70;99.90;;;;;;4195558;28;20213;-73
2022/10/15 05:39:46;;;;;;;0.97;0.70;;;13.70;99.90;;;;;;4195701;28;20623;-74
2022/10/15 05:41:48;;;;;;;0.83;0.57;;;13.60;99.90;;;;;;4195105;28;20623;-74
2022/10/15 05:43:50;;;;;;;0.70;0.63;;;13.60;99.90;;;;;;4195718;28;20191;-74
2022/10/15 05:45:54;;;;;;;1.20;0.70;;;13.60;99.90;;;;;;4195654;28;20282;-74
2022/10/15 05:47:56;;;;;;;0.73;0.73;;;13.60;99.90;;;;;;4194288;28;20198;-74
2022/10/15 05:49:56;;;;;;;0.80;0.80;;;13.60;99.90;;;;;;4195779;28;20193;-74
2022/10/15 05:51:57;;;;;;;4.50;2.80;;;13.70;99.90;;;;;;4193672;28;20274;-74
2022/10/15 05:53:58;;;;;;;1.40;1.20;;;13.60;99.90;;;;;;4195315;28;20218;-74
2022/10/15 05:55:59;;;;;;;0.97;0.90;;;13.60;99.90;;;;;;4195000;28;20207;-74
2022/10/15 05:58:03;;;;;;;3.47;2.90;;;13.50;99.90;;;;;;4195201;28;20730;-73
2022/10/15 06:00:05;;;;;;;0.57;0.57;;;13.40;99.90;;;;;;4195311;28;20222;-74
2022/10/15 06:02:08;;;;;;;0.50;0.50;;;13.40;99.90;;;;;;4194675;28;20209;-74
2022/10/15 06:04:09;;;;;;;0.50;0.50;;;13.30;99.90;;;;;;4195257;28;20187;-74
2022/10/15 06:06:18;;;;;;;0.80;0.80;;;13.40;99.90;;;;;;4195304;28;20206;-74
2022/10/15 06:08:20;;;;;;;0.77;0.60;;;13.40;99.90;;;;;;4195299;28;20187;-74
2022/10/15 06:10:20;;;;;;;0.93;0.83;;;13.50;99.90;;;;;;4194747;28;20179;-73
2022/10/15 06:12:21;;;;;;;1.17;0.80;;;13.40;99.90;;;;;;4195195;28;20202;-73
2022/10/15 06:14:22;;;;;;;0.50;0.50;;;13.40;99.90;;;;;;4195291;28;20190;-73
2022/10/15 06:16:22;;;;;;;0.67;0.60;;;13.30;99.90;;;;;;4195348;28;20184;-73
2022/10/15 06:18:23;;;;;;;0.67;0.67;;;13.30;99.90;;;;;;4195296;28;20178;-74
2022/10/15 06:20:23;;;;;;;0.90;0.83;;;13.30;99.90;;;;;;4194636;28;20218;-73
2022/10/15 06:22:24;;;;;;;1.03;1.03;;;13.20;99.90;;;;;;4194781;28;20180;-73
2022/10/15 06:24:24;;;;;;;1.13;0.77;;;13.30;99.90;;;;;;4193692;28;20218;-73
2022/10/15 06:26:25;;;;;;;1.17;0.60;;;13.20;99.90;;;;;;4194991;28;20562;-73
2022/10/15 06:28:25;;;;;;;0.70;0.70;;;13.30;99.90;;;;;;4195157;28;20190;-74
2022/10/15 06:30:26;;;;;;;0.70;0.70;;;13.30;99.90;;;;;;4194395;28;20270;-73
2022/10/15 06:32:27;;;;;;;0.60;0.60;;;13.30;99.90;;;;;;4194792;28;20175;-74
2022/10/15 06:34:27;;;;;;;0.80;0.80;;;13.20;99.90;;;;;;4196244;28;20179;-74
2022/10/15 06:36:28;;;;;;;0.70;0.70;;;13.20;99.90;;;;;;4198343;28;20239;-73
2022/10/15 06:38:29;;;;;;;1.07;0.70;;;13.20;99.90;;;;;;4198477;28;20187;-74
2022/10/15 06:40:30;;;;;;;0.77;0.77;;;13.20;99.90;;;;;;4190948;28;20188;-74
2022/10/15 06:42:31;;;;;;;1.03;1.03;;;13.20;99.90;;;;;;4183572;28;20187;-73
2022/10/15 06:44:31;;;;;;;0.40;0.40;;;13.30;99.90;;;;;;4198236;28;20650;-73
2022/10/15 06:46:32;;;;;;;0.40;0.40;;;13.30;99.90;;;;;;4198369;28;20210;-74
2022/10/15 06:48:33;;;;;;;0.93;0.77;;;13.30;99.90;;;;;;4198328;28;20176;-74
2022/10/15 06:50:36;;;;;;;1.07;0.57;;;13.40;99.90;;;;;;4197686;28;20202;-74
2022/10/15 06:52:36;;;;;;;1.93;1.83;;;13.40;99.90;;;;;;4198086;28;20196;-73
2022/10/15 06:54:37;;;;;;;0.50;0.50;;;13.30;99.90;;;;;;4198101;28;20623;-73
2022/10/15 06:56:37;;;;;;;0.67;0.67;;;13.20;99.90;;;;;;4197974;28;20727;-74
2022/10/15 06:58:41;;;;;;;0.50;0.50;;;13.20;99.90;;;;;;4198153;28;20186;-73
2022/10/15 07:00:42;;;;;;;1.30;1.20;;;13.30;99.90;;;;;;4197568;28;20179;-73
2022/10/15 07:02:42;;;;;;;1.10;1.00;;;13.40;99.90;;;;;;4197868;28;20669;-73
2022/10/15 07:04:43;;;;;;;0.83;0.77;;;13.40;99.90;;;;;;4196788;28;20201;-73
2022/10/15 07:06:44;;;;;;;1.30;1.20;;;13.30;99.90;;;;;;4198520;28;20211;-74
2022/10/15 07:08:45;;;;;;;1.60;1.33;;;13.30;99.90;;;;;;4197894;28;20214;-73
2022/10/15 07:10:45;;;;;;;1.10;1.10;;;13.20;99.90;;;;;;4197501;28;20176;-73
2022/10/15 07:12:46;;;;;;;1.00;0.70;;;13.10;99.90;;;;;;4197580;28;20713;-74
2022/10/15 07:14:48;;;;;;;1.43;0.70;;;13.00;99.90;;;;;;4197892;28;20187;-73
2022/10/15 07:16:48;;;;;;;1.50;0.70;;;12.90;99.90;;;;;;4198292;28;20200;-74
2022/10/15 07:18:49;;;;;;;1.23;0.70;;;12.80;99.90;;;;;;4197579;28;20172;-73
2022/10/15 07:20:49;;;;;;;1.67;0.80;;;12.80;99.90;;;;;;4197132;28;20840;-73
2022/10/15 07:22:54;;;;;;;1.33;1.23;;;12.80;99.90;;;;;;4197772;28;20171;-76
2022/10/15 07:24:55;;;;;;;1.93;1.50;;;12.80;99.90;;;;;;4197606;28;20176;-74
2022/10/15 07:26:55;;;;;;;1.43;0.80;;;12.80;99.90;;;;;;4197738;28;20618;-74
2022/10/15 07:28:56;;;;;;;2.03;1.10;;;12.80;99.90;;;;;;4197382;28;20598;-74
2022/10/15 07:31:02;;;;;;;2.70;1.47;;;12.80;99.90;;;;;;4195616;28;20180;-74
2022/10/15 07:33:02;;;;;;;1.23;1.13;;;12.90;99.90;;;;;;4197428;28;20215;-74
2022/10/15 07:35:04;;;;;;;3.13;1.10;;;12.90;99.90;;;;;;4197683;28;20207;-75
2022/10/15 07:37:04;;;;;;;3.13;1.23;;;12.90;99.90;;;;;;4197340;28;20191;-74
2022/10/15 07:39:05;;;;;;;4.00;1.30;;;12.90;99.90;;;;;;4197256;28;20219;-74
2022/10/15 07:41:07;;;;;;;2.30;1.63;;;12.90;99.90;;;;;;4196738;28;20240;-74
2022/10/15 07:43:08;;;;;;;1.93;1.00;;;13.00;99.90;;;;;;4197581;28;20188;-74
2022/10/15 07:45:09;;;;;;;1.93;1.23;;;13.00;99.90;;;;;;4196574;28;20199;-74
2022/10/15 07:47:09;;;;;;;1.37;1.20;;;13.00;99.90;;;;;;4197224;28;20187;-73
2022/10/15 07:49:10;;;;;;;2.23;0.93;;;13.00;99.90;;;;;;4197181;28;20195;-73
2022/10/15 07:51:11;;;;;;;2.83;1.40;;;12.90;99.90;;;;;;4196652;28;20172;-74
2022/10/15 07:53:12;;;;;;;1.97;0.83;;;12.90;99.90;;;;;;4197025;28;20724;-73
2022/10/15 07:55:12;;;;;;;1.30;0.80;;;13.00;99.90;;;;;;4197434;28;20204;-74
2022/10/15 07:57:13;;;;;;;3.07;2.80;;;13.00;99.90;;;;;;4197405;28;20172;-73
2022/10/15 07:59:13;;;;;;;3.40;1.60;;;13.00;99.90;;;;;;4197274;28;20253;-74
2022/10/15 08:01:14;;;;;;;1.73;1.50;;;13.00;99.90;;;;;;4196894;28;20270;-74
2022/10/15 08:03:14;;;;;;;2.30;1.80;;;13.00;99.90;;;;;;4197326;28;20183;-74
2022/10/15 08:05:15;;;;;;;5.17;4.87;;;13.00;99.90;;;;;;4197212;28;20192;-73
2022/10/15 08:07:15;;;;;;;1.57;0.90;;;13.00;99.90;;;;;;4197161;28;20183;-74
2022/10/15 08:09:16;;;;;;;2.17;1.43;;;13.10;99.90;;;;;;4197123;28;20175;-74
2022/10/15 08:11:17;;;;;;;2.63;0.90;;;13.00;99.90;;;;;;4196468;28;20203;-74
2022/10/15 08:13:17;;;;;;;3.10;2.07;;;13.00;99.90;;;;;;4196934;28;20207;-74
2022/10/15 08:15:18;;;;;;;3.27;1.53;;;13.00;99.90;;;;;;4195883;28;20207;-74
2022/10/15 08:17:19;;;;;;;1.90;1.80;;;13.00;99.90;;;;;;4188215;28;20634;-74
2022/10/15 08:19:19;;;;;;;3.07;2.87;;;13.00;99.90;;;;;;4180377;28;20230;-74
2022/10/15 08:21:20;;;;;;;3.23;1.00;;;12.90;99.90;;;;;;4183682;28;20710;-75
2022/10/15 08:23:20;;;;;;;5.13;4.83;;;12.90;99.90;;;;;;4187515;28;20275;-73
2022/10/15 08:25:21;;;;;;;2.07;1.37;;;12.90;99.90;;;;;;4188228;28;20200;-73
2022/10/15 08:27:22;;;;;;;4.40;2.40;;;12.90;99.90;;;;;;4188734;28;20188;-73
2022/10/15 08:29:22;;;;;;;3.10;2.90;;;12.90;99.90;;;;;;4187745;28;20291;-73
2022/10/15 08:31:23;;;;;;;2.90;2.63;;;12.90;99.90;;;;;;4188776;28;20194;-74
2022/10/15 08:33:23;;;;;;;3.03;2.83;;;13.00;99.90;;;;;;4196547;28;20261;-74
2022/10/15 08:35:25;;;;;;;3.33;3.00;;;13.00;99.90;;;;;;4196650;28;20192;-73
2022/10/15 08:37:25;;;;;;;4.57;3.37;;;13.10;99.90;;;;;;4196450;28;20199;-74
2022/10/15 08:39:26;;;;;;;1.87;1.63;;;13.10;99.90;;;;;;4196401;28;20673;-73
2022/10/15 08:41:47;;;;;;;3.43;1.50;;;13.20;99.90;;;;;;4195483;28;20180;-73
2022/10/15 08:43:48;;;;;;;1.30;1.20;;;13.30;99.90;;;;;;4196462;28;20236;-74
2022/10/15 08:45:53;;;;;;;1.43;1.33;;;13.40;99.90;;;;;;4196122;28;20289;-73
2022/10/15 08:48:26;;;;;;;4.07;1.30;;;13.60;99.90;;;;;;4182212;28;20276;-73
2022/10/15 08:50:31;;;;;;;1.63;0.90;;;13.80;99.90;;;;;;4178770;28;20196;-74
2022/10/15 08:52:42;;;;;;;4.13;1.50;;;13.90;99.90;;;;;;4179919;28;20720;-73
2022/10/15 08:54:42;;;;;;;2.60;2.23;;;14.10;99.90;;;;;;4179591;28;20571;-74
2022/10/15 08:56:53;;;;;;;2.97;1.33;;;14.10;99.90;;;;;;4179147;28;20176;-73
2022/10/15 08:59:02;;;;;;;1.47;0.97;;;14.10;99.90;;;;;;4194960;28;20658;-74
2022/10/15 09:01:14;;;;;;;3.80;1.00;;;14.20;99.90;;;;;;4178843;28;20172;-74
2022/10/15 09:03:33;;;;;;;3.63;3.37;;;14.30;99.90;;;;;;4179676;28;20655;-74
2022/10/15 09:05:55;;;;;;;1.83;1.40;;;14.10;99.90;;;;;;4179945;28;20698;-73
2022/10/15 09:08:05;;;;;;;2.53;1.90;;;14.20;99.90;;;;;;4179577;28;20207;-72
2022/10/15 09:10:23;;;;;;;1.57;1.30;;;14.30;99.90;;;;;;4179439;28;20184;-73
2022/10/15 09:12:35;;;;;;;3.80;1.20;;;14.30;99.90;;;;;;4179470;28;20204;-72
2022/10/15 09:14:43;;;;;;;1.40;1.00;;;14.30;99.90;;;;;;4179186;28;20211;-68
2022/10/15 09:16:47;;;;;;;2.13;1.00;;;14.30;99.90;;;;;;4179264;28;20188;-73
2022/10/15 09:18:51;;;;;;;1.70;1.23;;;14.40;99.90;;;;;;4178884;28;20184;-72
2022/10/15 09:20:52;;;;;;;2.53;1.80;;;14.20;99.90;;;;;;4178525;28;20183;-72
2022/10/15 09:22:53;;;;;;;2.17;1.30;;;14.20;99.90;;;;;;4193978;28;20188;-72
2022/10/15 09:24:54;;;;;;;3.03;0.87;;;14.30;99.90;;;;;;4179110;28;20186;-72
2022/10/15 09:27:19;;;;;;;4.53;1.20;;;14.40;99.90;;;;;;4178780;28;20184;-73
2022/10/15 09:29:40;;;;;;;4.47;1.00;;;14.70;99.90;;;;;;4178796;28;20183;-72
2022/10/15 09:32:11;;;;;;;3.20;1.00;;;14.80;99.90;;;;;;4178320;28;20184;-73
2022/10/15 09:34:21;;;;;;;4.13;1.07;;;14.70;99.90;;;;;;4177484;28;20212;-72
2022/10/15 09:36:42;;;;;;;1.50;1.10;;;14.40;99.90;;;;;;4173880;28;20269;-72
2022/10/15 09:39:24;;;;;;;2.70;1.00;;;14.30;99.90;;;;;;4194790;28;20214;-71
2022/10/15 09:41:46;;;;;;;2.30;0.90;;;14.30;99.90;;;;;;4191364;28;20199;-74
2022/10/15 09:43:50;;;;;;;1.00;0.90;;;14.30;99.90;;;;;;4206056;28;20530;-73
2022/10/15 09:45:50;;;;;;;3.80;1.30;;;14.40;99.90;;;;;;4200364;28;21007;-73
2022/10/15 09:47:55;;;;;;;1.50;0.90;;;14.30;99.90;;;;;;4205594;28;20268;-74
2022/10/15 09:49:56;;;;;;;2.60;1.73;;;14.30;99.90;;;;;;4201265;28;20233;-72
2022/10/15 09:52:26;;;;;;;2.00;1.23;;;14.20;99.90;;;;;;4203968;28;20772;-72
2022/10/15 09:55:01;;;;;;;1.17;0.80;;;14.30;99.90;;;;;;4200836;28;20206;-69
2022/10/15 09:57:02;;;;;;;1.80;0.90;;;14.40;99.90;;;;;;4195451;28;20183;-70
2022/10/15 09:59:03;;;;;;;1.77;1.10;;;14.40;99.90;;;;;;4210225;28;20217;-69
2022/10/15 10:01:15;;;;;;;1.97;1.10;;;14.60;99.90;;;;;;4193329;28;20190;-70
2022/10/15 10:03:16;;;;;;;2.23;0.90;;;14.60;99.90;;;;;;4195337;28;20187;-73
2022/10/15 10:05:30;;;;;;;1.97;0.80;;;14.80;99.90;;;;;;4210075;28;20712;-71
2022/10/15 10:07:36;;;;;;;2.77;0.87;;;14.70;99.90;;;;;;4197472;28;20261;-70
2022/10/15 10:09:50;;;;;;;2.30;0.90;;;14.70;99.90;;;;;;4207181;28;20183;-74
2022/10/15 10:11:53;;;;;;;4.43;1.13;;;14.70;99.90;;;;;;4198487;28;20251;-73
2022/10/15 10:13:57;;;;;;;4.33;1.30;;;14.70;99.90;;;;;;4204774;28;20238;-76
2022/10/15 10:16:08;;;;;;;1.63;1.53;;;14.90;99.90;;;;;;4200387;28;20195;-74
2022/10/15 10:18:23;;;;;;;3.50;3.30;;;15.00;99.90;;;;;;4202940;28;20258;-75
2022/10/15 10:20:29;;;;;;;2.03;1.83;;;15.00;99.90;;;;;;4204570;28;20182;-76
2022/10/15 10:22:53;;;;;;;1.07;0.90;;;14.90;99.90;;;;;;4200161;28;20183;-77
2022/10/15 10:24:54;;;;;;;2.77;2.50;;;14.70;99.90;;;;;;4209111;28;20299;-73
2022/10/15 10:26:56;;;;;;;3.13;1.50;;;14.40;99.90;;;;;;4196330;28;20305;-71
2022/10/15 10:28:56;;;;;;;2.33;2.13;;;14.20;99.90;;;;;;4209057;28;20185;-72
2022/10/15 10:30:57;;;;;;;3.13;3.00;;;14.20;99.90;;;;;;4194072;28;20235;-72
2022/10/15 10:33:00;;;;;;;3.50;1.33;;;14.20;99.90;;;;;;4224787;28;20210;-71
2022/10/15 10:35:02;;;;;;;1.40;0.90;;;14.40;99.90;;;;;;4195296;28;20208;-72
2022/10/15 10:37:05;;;;;;;2.33;1.20;;;14.60;99.90;;;;;;4210166;28;20190;-73
2022/10/15 10:39:12;;;;;;;1.67;0.70;;;14.90;99.90;;;;;;4194650;28;20213;-72
2022/10/15 10:41:13;;;;;;;0.90;0.80;;;15.30;99.90;;;;;;4178684;28;20180;-71
2022/10/15 10:43:17;;;;;;;1.47;0.80;;;15.60;99.10;;;;;;4210356;28;20239;-70
2022/10/15 10:45:22;;;;;;;3.50;1.73;;;15.60;98.70;;;;;;4187729;28;20291;-70